sensor_id;sensor_type;location;lat;lon;timestamp;P1;durP1;ratioP1;P2;durP2;ratioP2
77968;SDS011;67161;0.000;0.000;2023-03-15T00:01:57;4.07;;;1.30;;
77968;SDS011;67161;0.000;0.000;2023-03-15T00:04:26;3.53;;;1.30;;
77968;SDS011;67161;0.000;0.000;2023-03-15T00:06:52;3.10;;;1.00;;
77968;SDS011;67161;0.000;0.000;2023-03-15T00:09:18;3.90;;;1.00;;
77968;SDS011;67161;0.000;0.000;2023-03-15T00:11:46;2.58;;;1.08;;
77968;SDS011;67161;0.000;0.000;2023-03-15T00:14:12;2.55;;;1.10;;
77968;SDS011;67161;0.000;0.000;2023-03-15T00:16:38;5.15;;;1.20;;
77968;SDS011;67161;0.000;0.000;2023-03-15T00:19:06;4.72;;;1.05;;
77968;SDS011;67161;0.000;0.000;2023-03-15T00:21:33;3.30;;;1.05;;
77968;SDS011;67161;0.000;0.000;2023-03-15T00:23:59;3.05;;;1.17;;
77968;SDS011;67161;0.000;0.000;2023-03-15T00:26:25;3.53;;;1.33;;
77968;SDS011;67161;0.000;0.000;2023-03-15T00:28:51;5.75;;;1.60;;
77968;SDS011;67161;0.000;0.000;2023-03-15T00:31:21;4.00;;;1.30;;
77968;SDS011;67161;0.000;0.000;2023-03-15T00:33:49;3.13;;;1.27;;
77968;SDS011;67161;0.000;0.000;2023-03-15T00:36:18;4.13;;;1.45;;
77968;SDS011;67161;0.000;0.000;2023-03-15T00:38:47;4.68;;;1.27;;
77968;SDS011;67161;0.000;0.000;2023-03-15T00:41:14;2.83;;;1.00;;
77968;SDS011;67161;0.000;0.000;2023-03-15T00:43:41;2.92;;;1.05;;
77968;SDS011;67161;0.000;0.000;2023-03-15T00:46:08;3.00;;;1.17;;
77968;SDS011;67161;0.000;0.000;2023-03-15T00:48:34;5.28;;;1.08;;
77968;SDS011;67161;0.000;0.000;2023-03-15T00:51:00;2.40;;;1.05;;
77968;SDS011;67161;0.000;0.000;2023-03-15T00:53:29;3.75;;;1.27;;
77968;SDS011;67161;0.000;0.000;2023-03-15T00:55:55;2.65;;;1.20;;
77968;SDS011;67161;0.000;0.000;2023-03-15T00:58:21;3.55;;;1.20;;
77968;SDS011;67161;0.000;0.000;2023-03-15T01:00:46;2.90;;;1.00;;
77968;SDS011;67161;0.000;0.000;2023-03-15T01:03:12;2.75;;;1.13;;
77968;SDS011;67161;0.000;0.000;2023-03-15T01:05:38;2.65;;;1.00;;
77968;SDS011;67161;0.000;0.000;2023-03-15T01:08:04;3.47;;;1.15;;
77968;SDS011;67161;0.000;0.000;2023-03-15T01:10:30;4.72;;;1.10;;
77968;SDS011;67161;0.000;0.000;2023-03-15T01:12:59;2.97;;;1.10;;
77968;SDS011;67161;0.000;0.000;2023-03-15T01:15:24;4.03;;;1.15;;
77968;SDS011;67161;0.000;0.000;2023-03-15T01:17:50;3.63;;;1.30;;
77968;SDS011;67161;0.000;0.000;2023-03-15T01:20:16;3.22;;;0.85;;
77968;SDS011;67161;0.000;0.000;2023-03-15T01:22:41;3.30;;;1.08;;
77968;SDS011;67161;0.000;0.000;2023-03-15T01:25:07;4.68;;;1.30;;
77968;SDS011;67161;0.000;0.000;2023-03-15T01:27:33;3.80;;;1.20;;
77968;SDS011;67161;0.000;0.000;2023-03-15T01:29:59;2.35;;;1.02;;
77968;SDS011;67161;0.000;0.000;2023-03-15T01:32:25;2.83;;;1.05;;
77968;SDS011;67161;0.000;0.000;2023-03-15T01:34:50;4.55;;;1.10;;
77968;SDS011;67161;0.000;0.000;2023-03-15T01:37:16;3.10;;;1.25;;
77968;SDS011;67161;0.000;0.000;2023-03-15T01:39:42;4.22;;;1.02;;
77968;SDS011;67161;0.000;0.000;2023-03-15T01:42:07;2.80;;;0.93;;
77968;SDS011;67161;0.000;0.000;2023-03-15T01:47:14;2.80;;;1.02;;
77968;SDS011;67161;0.000;0.000;2023-03-15T01:49:40;2.45;;;0.82;;
77968;SDS011;67161;0.000;0.000;2023-03-15T01:52:08;2.70;;;1.00;;
77968;SDS011;67161;0.000;0.000;2023-03-15T01:59:37;2.67;;;0.88;;
77968;SDS011;67161;0.000;0.000;2023-03-15T02:02:06;2.85;;;0.90;;
77968;SDS011;67161;0.000;0.000;2023-03-15T02:04:34;2.97;;;1.15;;
77968;SDS011;67161;0.000;0.000;2023-03-15T02:07:04;4.45;;;1.10;;
77968;SDS011;67161;0.000;0.000;2023-03-15T02:09:39;3.25;;;1.00;;
77968;SDS011;67161;0.000;0.000;2023-03-15T02:12:10;2.78;;;0.88;;
77968;SDS011;67161;0.000;0.000;2023-03-15T02:14:36;2.63;;;0.93;;
77968;SDS011;67161;0.000;0.000;2023-03-15T02:17:02;4.53;;;1.25;;
77968;SDS011;67161;0.000;0.000;2023-03-15T02:19:46;2.40;;;1.00;;
77968;SDS011;67161;0.000;0.000;2023-03-15T02:23:07;3.03;;;0.93;;
77968;SDS011;67161;0.000;0.000;2023-03-15T02:25:23;3.50;;;0.80;;
77968;SDS011;67161;0.000;0.000;2023-03-15T02:28:03;3.03;;;0.90;;
77968;SDS011;67161;0.000;0.000;2023-03-15T02:30:31;3.95;;;1.00;;
77968;SDS011;67161;0.000;0.000;2023-03-15T02:32:58;2.83;;;1.02;;
77968;SDS011;67161;0.000;0.000;2023-03-15T02:35:27;3.53;;;1.20;;
77968;SDS011;67161;0.000;0.000;2023-03-15T02:37:55;4.05;;;1.00;;
77968;SDS011;67161;0.000;0.000;2023-03-15T02:40:22;5.28;;;0.93;;
77968;SDS011;67161;0.000;0.000;2023-03-15T02:42:58;4.15;;;1.25;;
77968;SDS011;67161;0.000;0.000;2023-03-15T02:45:28;5.00;;;1.10;;
77968;SDS011;67161;0.000;0.000;2023-03-15T02:47:56;3.78;;;1.05;;
77968;SDS011;67161;0.000;0.000;2023-03-15T02:50:22;3.85;;;1.20;;
77968;SDS011;67161;0.000;0.000;2023-03-15T02:52:48;6.00;;;1.08;;
77968;SDS011;67161;0.000;0.000;2023-03-15T02:55:14;2.72;;;0.93;;
77968;SDS011;67161;0.000;0.000;2023-03-15T02:57:40;4.15;;;1.30;;
77968;SDS011;67161;0.000;0.000;2023-03-15T03:00:06;4.00;;;0.98;;
77968;SDS011;67161;0.000;0.000;2023-03-15T03:02:38;3.20;;;0.82;;
77968;SDS011;67161;0.000;0.000;2023-03-15T03:05:05;2.58;;;0.82;;
77968;SDS011;67161;0.000;0.000;2023-03-15T03:07:31;2.08;;;0.77;;
77968;SDS011;67161;0.000;0.000;2023-03-15T03:09:57;3.95;;;1.20;;
77968;SDS011;67161;0.000;0.000;2023-03-15T03:12:22;2.55;;;0.82;;
77968;SDS011;67161;0.000;0.000;2023-03-15T03:14:48;2.83;;;0.70;;
77968;SDS011;67161;0.000;0.000;2023-03-15T03:17:14;3.90;;;1.00;;
77968;SDS011;67161;0.000;0.000;2023-03-15T03:19:40;2.50;;;0.80;;
77968;SDS011;67161;0.000;0.000;2023-03-15T03:22:05;2.60;;;0.88;;
77968;SDS011;67161;0.000;0.000;2023-03-15T03:24:31;3.38;;;0.77;;
77968;SDS011;67161;0.000;0.000;2023-03-15T03:26:57;3.17;;;1.00;;
77968;SDS011;67161;0.000;0.000;2023-03-15T03:29:24;2.35;;;0.82;;
77968;SDS011;67161;0.000;0.000;2023-03-15T03:31:50;2.78;;;0.90;;
77968;SDS011;67161;0.000;0.000;2023-03-15T03:34:16;3.50;;;0.98;;
77968;SDS011;67161;0.000;0.000;2023-03-15T03:36:41;4.00;;;1.08;;
77968;SDS011;67161;0.000;0.000;2023-03-15T03:39:08;2.05;;;0.70;;
77968;SDS011;67161;0.000;0.000;2023-03-15T03:41:34;3.28;;;0.98;;
77968;SDS011;67161;0.000;0.000;2023-03-15T03:44:00;3.90;;;1.00;;
77968;SDS011;67161;0.000;0.000;2023-03-15T03:46:26;4.82;;;0.90;;
77968;SDS011;67161;0.000;0.000;2023-03-15T03:48:52;3.83;;;1.08;;
77968;SDS011;67161;0.000;0.000;2023-03-15T03:51:19;4.03;;;0.93;;
77968;SDS011;67161;0.000;0.000;2023-03-15T03:53:45;3.53;;;0.90;;
77968;SDS011;67161;0.000;0.000;2023-03-15T03:56:10;2.85;;;0.95;;
77968;SDS011;67161;0.000;0.000;2023-03-15T03:58:36;4.72;;;1.17;;
77968;SDS011;67161;0.000;0.000;2023-03-15T04:01:01;3.72;;;0.90;;
77968;SDS011;67161;0.000;0.000;2023-03-15T04:03:27;2.20;;;1.00;;
77968;SDS011;67161;0.000;0.000;2023-03-15T04:05:54;2.80;;;0.93;;
77968;SDS011;67161;0.000;0.000;2023-03-15T04:08:20;4.20;;;0.98;;
77968;SDS011;67161;0.000;0.000;2023-03-15T04:10:50;4.00;;;0.85;;
77968;SDS011;67161;0.000;0.000;2023-03-15T04:13:17;2.97;;;0.75;;
77968;SDS011;67161;0.000;0.000;2023-03-15T04:15:43;4.50;;;1.00;;
77968;SDS011;67161;0.000;0.000;2023-03-15T04:18:09;3.45;;;0.85;;
77968;SDS011;67161;0.000;0.000;2023-03-15T04:20:35;3.17;;;0.77;;
77968;SDS011;67161;0.000;0.000;2023-03-15T04:23:00;3.20;;;0.80;;
77968;SDS011;67161;0.000;0.000;2023-03-15T04:25:26;2.72;;;0.90;;
77968;SDS011;67161;0.000;0.000;2023-03-15T04:27:52;2.60;;;0.90;;
77968;SDS011;67161;0.000;0.000;2023-03-15T04:30:26;2.92;;;0.80;;
77968;SDS011;67161;0.000;0.000;2023-03-15T04:32:53;2.25;;;0.82;;
77968;SDS011;67161;0.000;0.000;2023-03-15T04:35:26;3.70;;;1.10;;
77968;SDS011;67161;0.000;0.000;2023-03-15T04:37:53;3.25;;;0.85;;
77968;SDS011;67161;0.000;0.000;2023-03-15T04:40:19;2.15;;;0.77;;
77968;SDS011;67161;0.000;0.000;2023-03-15T04:42:48;2.53;;;0.90;;
77968;SDS011;67161;0.000;0.000;2023-03-15T04:45:19;1.57;;;0.50;;
77968;SDS011;67161;0.000;0.000;2023-03-15T04:47:48;2.65;;;0.90;;
77968;SDS011;67161;0.000;0.000;2023-03-15T04:50:15;2.03;;;0.70;;
77968;SDS011;67161;0.000;0.000;2023-03-15T04:52:40;2.70;;;0.90;;
77968;SDS011;67161;0.000;0.000;2023-03-15T04:55:07;3.60;;;0.95;;
77968;SDS011;67161;0.000;0.000;2023-03-15T04:57:33;3.03;;;0.80;;
77968;SDS011;67161;0.000;0.000;2023-03-15T04:59:59;3.35;;;0.98;;
77968;SDS011;67161;0.000;0.000;2023-03-15T05:02:24;3.00;;;0.82;;
77968;SDS011;67161;0.000;0.000;2023-03-15T05:04:50;3.78;;;0.77;;
77968;SDS011;67161;0.000;0.000;2023-03-15T05:07:16;3.22;;;0.90;;
77968;SDS011;67161;0.000;0.000;2023-03-15T05:09:41;3.08;;;0.80;;
77968;SDS011;67161;0.000;0.000;2023-03-15T05:12:10;2.30;;;0.70;;
77968;SDS011;67161;0.000;0.000;2023-03-15T05:14:36;2.95;;;1.05;;
77968;SDS011;67161;0.000;0.000;2023-03-15T05:17:02;2.72;;;0.90;;
77968;SDS011;67161;0.000;0.000;2023-03-15T05:19:28;3.85;;;0.90;;
77968;SDS011;67161;0.000;0.000;2023-03-15T05:21:58;2.30;;;0.70;;
77968;SDS011;67161;0.000;0.000;2023-03-15T05:24:23;2.63;;;0.90;;
77968;SDS011;67161;0.000;0.000;2023-03-15T05:26:49;2.17;;;0.73;;
77968;SDS011;67161;0.000;0.000;2023-03-15T05:29:18;2.10;;;0.63;;
77968;SDS011;67161;0.000;0.000;2023-03-15T05:31:45;2.70;;;0.88;;
77968;SDS011;67161;0.000;0.000;2023-03-15T05:34:12;2.85;;;0.93;;
77968;SDS011;67161;0.000;0.000;2023-03-15T05:36:37;2.78;;;0.80;;
77968;SDS011;67161;0.000;0.000;2023-03-15T05:39:03;1.92;;;0.70;;
77968;SDS011;67161;0.000;0.000;2023-03-15T05:41:29;3.55;;;0.77;;
77968;SDS011;67161;0.000;0.000;2023-03-15T05:43:55;3.88;;;0.98;;
77968;SDS011;67161;0.000;0.000;2023-03-15T05:46:21;3.38;;;0.75;;
77968;SDS011;67161;0.000;0.000;2023-03-15T05:48:47;3.00;;;0.70;;
77968;SDS011;67161;0.000;0.000;2023-03-15T05:51:13;2.45;;;0.80;;
77968;SDS011;67161;0.000;0.000;2023-03-15T05:53:39;2.72;;;1.00;;
77968;SDS011;67161;0.000;0.000;2023-03-15T05:56:05;2.28;;;0.80;;
77968;SDS011;67161;0.000;0.000;2023-03-15T05:58:31;2.53;;;0.90;;
77968;SDS011;67161;0.000;0.000;2023-03-15T06:00:57;3.70;;;0.90;;
77968;SDS011;67161;0.000;0.000;2023-03-15T06:03:22;1.92;;;0.85;;
77968;SDS011;67161;0.000;0.000;2023-03-15T06:05:48;3.75;;;1.13;;
77968;SDS011;67161;0.000;0.000;2023-03-15T06:08:13;2.97;;;0.80;;
77968;SDS011;67161;0.000;0.000;2023-03-15T06:10:39;2.92;;;1.00;;
77968;SDS011;67161;0.000;0.000;2023-03-15T06:13:04;2.33;;;0.75;;
77968;SDS011;67161;0.000;0.000;2023-03-15T06:15:30;3.55;;;0.88;;
77968;SDS011;67161;0.000;0.000;2023-03-15T06:17:56;2.72;;;0.90;;
77968;SDS011;67161;0.000;0.000;2023-03-15T06:20:22;3.22;;;0.80;;
77968;SDS011;67161;0.000;0.000;2023-03-15T06:22:47;2.35;;;0.68;;
77968;SDS011;67161;0.000;0.000;2023-03-15T06:25:13;2.38;;;0.88;;
77968;SDS011;67161;0.000;0.000;2023-03-15T06:27:39;1.63;;;0.57;;
77968;SDS011;67161;0.000;0.000;2023-03-15T06:30:05;2.10;;;0.73;;
77968;SDS011;67161;0.000;0.000;2023-03-15T06:32:31;3.10;;;0.80;;
77968;SDS011;67161;0.000;0.000;2023-03-15T06:34:57;4.70;;;1.23;;
77968;SDS011;67161;0.000;0.000;2023-03-15T06:37:22;3.38;;;0.80;;
77968;SDS011;67161;0.000;0.000;2023-03-15T06:39:48;3.25;;;0.82;;
77968;SDS011;67161;0.000;0.000;2023-03-15T06:42:15;2.97;;;0.80;;
77968;SDS011;67161;0.000;0.000;2023-03-15T06:44:40;1.60;;;0.63;;
77968;SDS011;67161;0.000;0.000;2023-03-15T06:47:07;4.00;;;1.08;;
77968;SDS011;67161;0.000;0.000;2023-03-15T06:49:34;3.60;;;1.00;;
77968;SDS011;67161;0.000;0.000;2023-03-15T06:51:59;2.63;;;0.80;;
77968;SDS011;67161;0.000;0.000;2023-03-15T06:54:25;2.10;;;0.77;;
77968;SDS011;67161;0.000;0.000;2023-03-15T06:56:51;3.30;;;0.90;;
77968;SDS011;67161;0.000;0.000;2023-03-15T06:59:16;3.13;;;0.90;;
77968;SDS011;67161;0.000;0.000;2023-03-15T07:01:42;3.40;;;1.05;;
77968;SDS011;67161;0.000;0.000;2023-03-15T07:04:08;3.20;;;0.98;;
77968;SDS011;67161;0.000;0.000;2023-03-15T07:06:33;2.47;;;0.80;;
77968;SDS011;67161;0.000;0.000;2023-03-15T07:08:59;4.13;;;1.15;;
77968;SDS011;67161;0.000;0.000;2023-03-15T07:11:25;3.28;;;0.90;;
77968;SDS011;67161;0.000;0.000;2023-03-15T07:13:51;2.65;;;0.90;;
77968;SDS011;67161;0.000;0.000;2023-03-15T07:16:17;2.85;;;0.85;;
77968;SDS011;67161;0.000;0.000;2023-03-15T07:18:42;3.03;;;0.90;;
77968;SDS011;67161;0.000;0.000;2023-03-15T07:21:08;4.00;;;1.00;;
77968;SDS011;67161;0.000;0.000;2023-03-15T07:23:34;3.17;;;1.10;;
77968;SDS011;67161;0.000;0.000;2023-03-15T07:25:59;2.85;;;0.90;;
77968;SDS011;67161;0.000;0.000;2023-03-15T07:28:25;3.75;;;1.00;;
77968;SDS011;67161;0.000;0.000;2023-03-15T07:31:10;2.22;;;0.82;;
77968;SDS011;67161;0.000;0.000;2023-03-15T07:33:36;2.33;;;0.80;;
77968;SDS011;67161;0.000;0.000;2023-03-15T07:36:02;3.00;;;0.85;;
77968;SDS011;67161;0.000;0.000;2023-03-15T07:38:29;3.60;;;0.90;;
77968;SDS011;67161;0.000;0.000;2023-03-15T07:40:55;3.50;;;0.90;;
77968;SDS011;67161;0.000;0.000;2023-03-15T07:43:21;2.40;;;0.90;;
77968;SDS011;67161;0.000;0.000;2023-03-15T07:45:48;4.22;;;1.17;;
77968;SDS011;67161;0.000;0.000;2023-03-15T07:48:14;2.72;;;0.90;;
77968;SDS011;67161;0.000;0.000;2023-03-15T07:50:40;2.65;;;0.70;;
77968;SDS011;67161;0.000;0.000;2023-03-15T07:53:06;3.45;;;1.10;;
77968;SDS011;67161;0.000;0.000;2023-03-15T07:55:32;3.65;;;0.82;;
77968;SDS011;67161;0.000;0.000;2023-03-15T07:57:58;2.92;;;0.90;;
77968;SDS011;67161;0.000;0.000;2023-03-15T08:00:23;3.15;;;0.90;;
77968;SDS011;67161;0.000;0.000;2023-03-15T08:02:49;4.05;;;0.95;;
77968;SDS011;67161;0.000;0.000;2023-03-15T08:05:15;2.72;;;0.90;;
77968;SDS011;67161;0.000;0.000;2023-03-15T08:07:43;1.95;;;0.77;;
77968;SDS011;67161;0.000;0.000;2023-03-15T08:10:13;3.42;;;1.17;;
77968;SDS011;67161;0.000;0.000;2023-03-15T08:12:40;3.13;;;1.00;;
77968;SDS011;67161;0.000;0.000;2023-03-15T08:15:10;3.47;;;1.02;;
77968;SDS011;67161;0.000;0.000;2023-03-15T08:17:37;4.22;;;1.15;;
77968;SDS011;67161;0.000;0.000;2023-03-15T08:20:04;4.18;;;1.00;;
77968;SDS011;67161;0.000;0.000;2023-03-15T08:22:30;3.67;;;1.25;;
77968;SDS011;67161;0.000;0.000;2023-03-15T08:24:56;3.08;;;0.90;;
77968;SDS011;67161;0.000;0.000;2023-03-15T08:27:22;7.28;;;1.00;;
77968;SDS011;67161;0.000;0.000;2023-03-15T08:29:48;5.00;;;1.10;;
77968;SDS011;67161;0.000;0.000;2023-03-15T08:32:15;3.78;;;1.10;;
77968;SDS011;67161;0.000;0.000;2023-03-15T08:34:42;4.32;;;1.15;;
77968;SDS011;67161;0.000;0.000;2023-03-15T08:37:08;5.40;;;1.20;;
77968;SDS011;67161;0.000;0.000;2023-03-15T08:39:35;4.05;;;1.20;;
77968;SDS011;67161;0.000;0.000;2023-03-15T08:42:01;3.95;;;1.10;;
77968;SDS011;67161;0.000;0.000;2023-03-15T08:44:27;3.28;;;1.10;;
77968;SDS011;67161;0.000;0.000;2023-03-15T08:46:53;5.07;;;1.17;;
77968;SDS011;67161;0.000;0.000;2023-03-15T08:49:18;3.20;;;0.88;;
77968;SDS011;67161;0.000;0.000;2023-03-15T08:51:44;4.10;;;1.10;;
77968;SDS011;67161;0.000;0.000;2023-03-15T08:54:10;3.13;;;0.90;;
77968;SDS011;67161;0.000;0.000;2023-03-15T08:56:37;3.17;;;0.85;;
77968;SDS011;67161;0.000;0.000;2023-03-15T08:59:03;2.97;;;0.90;;
77968;SDS011;67161;0.000;0.000;2023-03-15T09:01:29;3.10;;;1.10;;
77968;SDS011;67161;0.000;0.000;2023-03-15T09:03:54;3.38;;;1.10;;
77968;SDS011;67161;0.000;0.000;2023-03-15T09:06:20;2.97;;;1.08;;
77968;SDS011;67161;0.000;0.000;2023-03-15T09:08:46;2.65;;;0.80;;
77968;SDS011;67161;0.000;0.000;2023-03-15T09:11:11;3.65;;;1.00;;
77968;SDS011;67161;0.000;0.000;2023-03-15T09:13:37;3.17;;;0.90;;
77968;SDS011;67161;0.000;0.000;2023-03-15T09:16:03;4.90;;;0.82;;
77968;SDS011;67161;0.000;0.000;2023-03-15T09:18:29;4.95;;;1.05;;
77968;SDS011;67161;0.000;0.000;2023-03-15T09:20:55;6.28;;;1.13;;
77968;SDS011;67161;0.000;0.000;2023-03-15T09:23:21;3.45;;;1.10;;
77968;SDS011;67161;0.000;0.000;2023-03-15T09:25:47;4.03;;;1.02;;
77968;SDS011;67161;0.000;0.000;2023-03-15T09:28:12;2.22;;;1.00;;
77968;SDS011;67161;0.000;0.000;2023-03-15T09:30:38;4.05;;;1.00;;
77968;SDS011;67161;0.000;0.000;2023-03-15T09:33:05;2.50;;;0.90;;
77968;SDS011;67161;0.000;0.000;2023-03-15T09:35:31;3.05;;;1.05;;
77968;SDS011;67161;0.000;0.000;2023-03-15T09:37:57;4.72;;;1.17;;
77968;SDS011;67161;0.000;0.000;2023-03-15T09:40:25;2.88;;;0.80;;
77968;SDS011;67161;0.000;0.000;2023-03-15T09:53:31;7.85;;;1.00;;
77968;SDS011;67161;0.000;0.000;2023-03-15T09:56:11;3.20;;;0.88;;
77968;SDS011;67161;0.000;0.000;2023-03-15T09:58:51;2.50;;;1.00;;
77968;SDS011;67161;0.000;0.000;2023-03-15T10:01:23;3.22;;;0.85;;
77968;SDS011;67161;0.000;0.000;2023-03-15T10:06:23;4.15;;;0.90;;
77968;SDS011;67161;0.000;0.000;2023-03-15T10:09:00;3.17;;;0.90;;
77968;SDS011;67161;0.000;0.000;2023-03-15T10:11:48;3.55;;;1.00;;
77968;SDS011;67161;0.000;0.000;2023-03-15T10:16:46;3.85;;;1.13;;
77968;SDS011;67161;0.000;0.000;2023-03-15T10:24:39;3.60;;;1.10;;
77968;SDS011;67161;0.000;0.000;2023-03-15T10:27:19;4.22;;;1.17;;
77968;SDS011;67161;0.000;0.000;2023-03-15T10:29:49;3.65;;;1.00;;
77968;SDS011;67161;0.000;0.000;2023-03-15T10:32:19;4.72;;;0.90;;
77968;SDS011;67161;0.000;0.000;2023-03-15T10:34:54;2.80;;;1.10;;
77968;SDS011;67161;0.000;0.000;2023-03-15T10:37:24;2.92;;;1.00;;
77968;SDS011;67161;0.000;0.000;2023-03-15T10:39:54;2.53;;;0.80;;
77968;SDS011;67161;0.000;0.000;2023-03-15T10:44:55;4.50;;;1.15;;
77968;SDS011;67161;0.000;0.000;2023-03-15T10:47:22;3.10;;;0.88;;
77968;SDS011;67161;0.000;0.000;2023-03-15T10:49:49;3.63;;;1.10;;
77968;SDS011;67161;0.000;0.000;2023-03-15T10:52:41;4.28;;;1.10;;
77968;SDS011;67161;0.000;0.000;2023-03-15T10:55:13;4.32;;;1.20;;
77968;SDS011;67161;0.000;0.000;2023-03-15T10:57:57;3.60;;;0.90;;
77968;SDS011;67161;0.000;0.000;2023-03-15T11:00:35;3.30;;;0.97;;
77968;SDS011;67161;0.000;0.000;2023-03-15T11:03:05;5.05;;;1.30;;
77968;SDS011;67161;0.000;0.000;2023-03-15T11:05:43;4.53;;;0.88;;
77968;SDS011;67161;0.000;0.000;2023-03-15T11:10:41;4.85;;;1.02;;
77968;SDS011;67161;0.000;0.000;2023-03-15T11:13:18;4.22;;;1.23;;
77968;SDS011;67161;0.000;0.000;2023-03-15T11:15:48;4.00;;;0.90;;
77968;SDS011;67161;0.000;0.000;2023-03-15T11:18:27;2.65;;;0.98;;
77968;SDS011;67161;0.000;0.000;2023-03-15T11:21:21;2.63;;;0.80;;
77968;SDS011;67161;0.000;0.000;2023-03-15T11:23:49;3.45;;;1.10;;
77968;SDS011;67161;0.000;0.000;2023-03-15T11:26:17;4.25;;;0.95;;
77968;SDS011;67161;0.000;0.000;2023-03-15T11:28:49;4.63;;;0.95;;
77968;SDS011;67161;0.000;0.000;2023-03-15T11:31:20;3.13;;;1.15;;
77968;SDS011;67161;0.000;0.000;2023-03-15T11:33:54;4.28;;;1.02;;
77968;SDS011;67161;0.000;0.000;2023-03-15T11:36:21;4.97;;;1.20;;
77968;SDS011;67161;0.000;0.000;2023-03-15T11:38:50;4.10;;;1.00;;
77968;SDS011;67161;0.000;0.000;2023-03-15T11:41:25;3.55;;;0.95;;
77968;SDS011;67161;0.000;0.000;2023-03-15T11:44:02;4.47;;;1.10;;
77968;SDS011;67161;0.000;0.000;2023-03-15T11:46:48;3.42;;;1.10;;
77968;SDS011;67161;0.000;0.000;2023-03-15T11:51:59;4.43;;;1.20;;
77968;SDS011;67161;0.000;0.000;2023-03-15T11:54:25;4.05;;;1.02;;
77968;SDS011;67161;0.000;0.000;2023-03-15T11:57:01;3.58;;;1.00;;
77968;SDS011;67161;0.000;0.000;2023-03-15T12:02:50;3.70;;;1.17;;
77968;SDS011;67161;0.000;0.000;2023-03-15T12:04:55;5.97;;;1.30;;
77968;SDS011;67161;0.000;0.000;2023-03-15T12:09:53;3.90;;;1.33;;
77968;SDS011;67161;0.000;0.000;2023-03-15T12:12:44;5.60;;;1.50;;
77968;SDS011;67161;0.000;0.000;2023-03-15T12:15:39;3.38;;;1.25;;
77968;SDS011;67161;0.000;0.000;2023-03-15T12:18:02;4.38;;;1.17;;
77968;SDS011;67161;0.000;0.000;2023-03-15T12:20:35;5.60;;;1.23;;
77968;SDS011;67161;0.000;0.000;2023-03-15T12:25:57;3.92;;;1.30;;
77968;SDS011;67161;0.000;0.000;2023-03-15T12:28:36;3.85;;;1.17;;
77968;SDS011;67161;0.000;0.000;2023-03-15T12:31:05;2.78;;;1.00;;
77968;SDS011;67161;0.000;0.000;2023-03-15T12:33:47;5.20;;;1.48;;
77968;SDS011;67161;0.000;0.000;2023-03-15T12:36:34;4.78;;;1.48;;
77968;SDS011;67161;0.000;0.000;2023-03-15T12:51:54;3.93;;;1.20;;
77968;SDS011;67161;0.000;0.000;2023-03-15T12:54:38;4.65;;;1.48;;
77968;SDS011;67161;0.000;0.000;2023-03-15T12:57:08;4.97;;;1.27;;
77968;SDS011;67161;0.000;0.000;2023-03-15T13:02:33;5.93;;;1.60;;
77968;SDS011;67161;0.000;0.000;2023-03-15T13:05:06;6.53;;;1.75;;
77968;SDS011;67161;0.000;0.000;2023-03-15T13:10:39;6.18;;;1.38;;
77968;SDS011;67161;0.000;0.000;2023-03-15T13:16:29;4.00;;;1.45;;
77968;SDS011;67161;0.000;0.000;2023-03-15T13:21:47;14.13;;;4.88;;
77968;SDS011;67161;0.000;0.000;2023-03-15T13:27:36;27.85;;;10.07;;
77968;SDS011;67161;0.000;0.000;2023-03-15T13:30:34;43.05;;;14.50;;
77968;SDS011;67161;0.000;0.000;2023-03-15T13:33:10;40.50;;;13.23;;
77968;SDS011;67161;0.000;0.000;2023-03-15T13:35:43;78.15;;;25.10;;
77968;SDS011;67161;0.000;0.000;2023-03-15T13:38:45;57.35;;;20.02;;
77968;SDS011;67161;0.000;0.000;2023-03-15T13:43:45;83.32;;;29.83;;
77968;SDS011;67161;0.000;0.000;2023-03-15T13:46:12;85.00;;;31.27;;
77968;SDS011;67161;0.000;0.000;2023-03-15T13:48:42;99.07;;;34.53;;
77968;SDS011;67161;0.000;0.000;2023-03-15T13:51:23;84.30;;;30.27;;
77968;SDS011;67161;0.000;0.000;2023-03-15T13:53:53;124.95;;;43.05;;
77968;SDS011;67161;0.000;0.000;2023-03-15T13:56:31;145.93;;;49.47;;
77968;SDS011;67161;0.000;0.000;2023-03-15T13:58:58;99.68;;;33.58;;
77968;SDS011;67161;0.000;0.000;2023-03-15T14:01:26;111.03;;;39.55;;
77968;SDS011;67161;0.000;0.000;2023-03-15T14:04:01;121.70;;;41.85;;
77968;SDS011;67161;0.000;0.000;2023-03-15T14:06:31;167.27;;;54.67;;
77968;SDS011;67161;0.000;0.000;2023-03-15T14:09:06;151.68;;;50.47;;
77968;SDS011;67161;0.000;0.000;2023-03-15T14:11:36;239.25;;;79.43;;
77968;SDS011;67161;0.000;0.000;2023-03-15T14:16:49;145.82;;;49.03;;
77968;SDS011;67161;0.000;0.000;2023-03-15T14:19:17;139.93;;;48.53;;
77968;SDS011;67161;0.000;0.000;2023-03-15T14:21:46;141.77;;;47.95;;
77968;SDS011;67161;0.000;0.000;2023-03-15T14:24:21;201.15;;;62.55;;
77968;SDS011;67161;0.000;0.000;2023-03-15T14:26:54;140.13;;;44.83;;
77968;SDS011;67161;0.000;0.000;2023-03-15T14:29:31;165.82;;;49.97;;
77968;SDS011;67161;0.000;0.000;2023-03-15T14:32:07;149.75;;;47.40;;
77968;SDS011;67161;0.000;0.000;2023-03-15T14:34:47;128.43;;;44.30;;
77968;SDS011;67161;0.000;0.000;2023-03-15T14:42:40;125.30;;;41.70;;
77968;SDS011;67161;0.000;0.000;2023-03-15T14:45:07;115.43;;;38.33;;
77968;SDS011;67161;0.000;0.000;2023-03-15T14:47:34;105.78;;;37.42;;
77968;SDS011;67161;0.000;0.000;2023-03-15T14:50:08;93.70;;;33.22;;
77968;SDS011;67161;0.000;0.000;2023-03-15T14:52:40;83.90;;;26.77;;
77968;SDS011;67161;0.000;0.000;2023-03-15T14:55:10;66.53;;;26.45;;
77968;SDS011;67161;0.000;0.000;2023-03-15T14:57:41;72.68;;;23.55;;
77968;SDS011;67161;0.000;0.000;2023-03-15T15:00:07;70.28;;;22.30;;
77968;SDS011;67161;0.000;0.000;2023-03-15T15:02:46;63.20;;;20.40;;
77968;SDS011;67161;0.000;0.000;2023-03-15T15:07:46;74.30;;;24.60;;
77968;SDS011;67161;0.000;0.000;2023-03-15T15:10:14;73.95;;;26.10;;
77968;SDS011;67161;0.000;0.000;2023-03-15T15:12:39;73.22;;;22.40;;
77968;SDS011;67161;0.000;0.000;2023-03-15T15:15:12;60.88;;;22.00;;
77968;SDS011;67161;0.000;0.000;2023-03-15T15:17:43;58.05;;;20.15;;
77968;SDS011;67161;0.000;0.000;2023-03-15T15:20:10;52.05;;;17.90;;
77968;SDS011;67161;0.000;0.000;2023-03-15T15:22:39;54.00;;;18.73;;
77968;SDS011;67161;0.000;0.000;2023-03-15T15:25:16;60.22;;;18.65;;
77968;SDS011;67161;0.000;0.000;2023-03-15T15:27:44;59.60;;;22.05;;
77968;SDS011;67161;0.000;0.000;2023-03-15T15:30:14;64.68;;;23.48;;
77968;SDS011;67161;0.000;0.000;2023-03-15T15:32:42;89.70;;;26.38;;
77968;SDS011;67161;0.000;0.000;2023-03-15T15:35:09;120.80;;;36.45;;
77968;SDS011;67161;0.000;0.000;2023-03-15T15:37:37;107.80;;;37.47;;
77968;SDS011;67161;0.000;0.000;2023-03-15T15:40:03;105.18;;;33.50;;
77968;SDS011;67161;0.000;0.000;2023-03-15T15:42:34;96.00;;;33.58;;
77968;SDS011;67161;0.000;0.000;2023-03-15T15:44:59;100.97;;;34.13;;
77968;SDS011;67161;0.000;0.000;2023-03-15T15:47:25;87.53;;;31.88;;
77968;SDS011;67161;0.000;0.000;2023-03-15T15:49:51;92.47;;;31.40;;
77968;SDS011;67161;0.000;0.000;2023-03-15T15:52:16;82.13;;;30.88;;
77968;SDS011;67161;0.000;0.000;2023-03-15T15:54:42;84.43;;;28.20;;
77968;SDS011;67161;0.000;0.000;2023-03-15T15:57:08;83.25;;;27.80;;
77968;SDS011;67161;0.000;0.000;2023-03-15T15:59:35;69.40;;;25.88;;
77968;SDS011;67161;0.000;0.000;2023-03-15T16:02:01;84.85;;;26.10;;
77968;SDS011;67161;0.000;0.000;2023-03-15T16:04:27;72.93;;;26.33;;
77968;SDS011;67161;0.000;0.000;2023-03-15T16:06:54;75.47;;;23.45;;
77968;SDS011;67161;0.000;0.000;2023-03-15T16:09:22;73.28;;;21.92;;
77968;SDS011;67161;0.000;0.000;2023-03-15T16:11:51;60.65;;;19.98;;
77968;SDS011;67161;0.000;0.000;2023-03-15T16:14:17;54.58;;;19.40;;
77968;SDS011;67161;0.000;0.000;2023-03-15T16:16:42;51.72;;;18.73;;
77968;SDS011;67161;0.000;0.000;2023-03-15T16:19:08;57.22;;;17.05;;
77968;SDS011;67161;0.000;0.000;2023-03-15T16:21:38;52.10;;;16.63;;
77968;SDS011;67161;0.000;0.000;2023-03-15T16:24:19;49.08;;;15.90;;
77968;SDS011;67161;0.000;0.000;2023-03-15T16:26:50;39.50;;;14.48;;
77968;SDS011;67161;0.000;0.000;2023-03-15T16:29:24;44.58;;;13.48;;
77968;SDS011;67161;0.000;0.000;2023-03-15T16:31:57;39.17;;;12.80;;